createdAt,value
2023-04-26T00:02:18.857Z,10.20
2023-04-26T00:05:24.836Z,9.07
2023-04-26T00:08:33.038Z,11.27
2023-04-26T00:11:38.497Z,9.68
2023-04-26T00:14:44.235Z,8.45
2023-04-26T00:17:51.144Z,9.75
2023-04-26T00:20:56.589Z,12.57
2023-04-26T00:24:05.640Z,13.18
2023-04-26T00:27:11.970Z,12.27
2023-04-26T00:30:18.705Z,8.93
2023-04-26T00:33:24.078Z,9.20
2023-04-26T00:36:29.591Z,10.88
2023-04-26T00:39:37.371Z,9.57
2023-04-26T00:42:43.534Z,11.90
2023-04-26T00:45:48.957Z,8.68
2023-04-26T00:48:54.713Z,10.30
2023-04-26T00:52:00.861Z,7.88
2023-04-26T00:55:09.177Z,11.18
2023-04-26T01:01:20.249Z,9.48
2023-04-26T01:04:27.800Z,9.15
2023-04-26T01:07:34.735Z,10.98
2023-04-26T01:10:44.122Z,9.60
2023-04-26T01:13:49.993Z,8.52
2023-04-26T01:16:55.794Z,11.00
2023-04-26T01:20:01.249Z,8.45
2023-04-26T01:23:11.923Z,9.80
2023-04-26T01:26:17.521Z,9.60
2023-04-26T01:29:24.767Z,10.98
2023-04-26T01:32:30.022Z,8.52
2023-04-26T01:35:37.006Z,11.45
2023-04-26T01:38:44.916Z,9.60
2023-04-26T01:41:50.660Z,9.05
2023-04-26T01:44:55.865Z,10.73
2023-04-26T01:48:01.587Z,8.73
2023-04-26T01:51:11.519Z,10.52
2023-04-26T01:54:19.778Z,8.57
2023-04-26T01:57:25.137Z,10.80
2023-04-26T02:00:32.655Z,9.43
2023-04-26T02:03:38.540Z,12.88
2023-04-26T02:06:44.798Z,9.40
2023-04-26T02:09:53.241Z,10.70
2023-04-26T02:12:58.495Z,13.85
2023-04-26T02:16:04.020Z,8.77
2023-04-26T02:19:11.128Z,10.02
2023-04-26T02:22:37.706Z,11.82
2023-04-26T02:25:48.596Z,11.90
2023-04-26T02:28:55.663Z,8.35
2023-04-26T02:32:01.138Z,9.23
2023-04-26T02:35:07.156Z,12.13
2023-04-26T02:38:12.610Z,8.50
2023-04-26T02:41:20.375Z,10.45
2023-04-26T02:44:26.347Z,7.95
2023-04-26T02:47:31.756Z,9.93
2023-04-26T02:50:36.960Z,8.77
2023-04-26T02:53:43.175Z,8.90
2023-04-26T02:56:51.503Z,7.32
2023-04-26T02:59:56.801Z,8.52
2023-04-26T03:03:03.174Z,8.73
2023-04-26T03:06:08.877Z,5.57
2023-04-26T03:09:14.296Z,5.53
2023-04-26T03:12:22.776Z,6.43
2023-04-26T03:15:28.242Z,7.05
2023-04-26T03:18:33.683Z,7.13
2023-04-26T03:21:39.609Z,9.52
2023-04-26T03:24:46.851Z,6.45
2023-04-26T03:27:55.852Z,8.18
2023-04-26T03:31:02.123Z,7.80
2023-04-26T03:34:09.586Z,8.30
2023-04-26T03:37:14.962Z,6.72
2023-04-26T03:40:22.792Z,7.10
2023-04-26T03:43:31.216Z,7.43
2023-04-26T03:46:38.810Z,8.07
2023-04-26T03:49:44.268Z,6.18
2023-04-26T03:52:50.246Z,10.23
2023-04-26T03:55:55.673Z,5.70
2023-04-26T03:59:04.266Z,6.38
2023-04-26T04:02:10.698Z,5.60
2023-04-26T04:05:16.682Z,4.20
2023-04-26T04:08:21.936Z,5.85
2023-04-26T04:11:27.538Z,4.40
2023-04-26T04:14:36.730Z,5.63
2023-04-26T04:17:42.421Z,5.05
2023-04-26T04:20:47.872Z,4.95
2023-04-26T04:23:53.795Z,7.72
2023-04-26T04:27:01.509Z,4.97
2023-04-26T04:30:10.639Z,5.32
2023-04-26T04:33:16.580Z,4.00
2023-04-26T04:36:22.059Z,3.80
2023-04-26T04:39:27.188Z,3.97
2023-04-26T04:42:33.242Z,15.85
2023-04-26T04:45:42.070Z,5.65
2023-04-26T04:48:47.898Z,5.07
2023-04-26T04:51:53.501Z,5.68
2023-04-26T04:54:59.058Z,5.43
2023-04-26T04:58:04.405Z,4.90
2023-04-26T05:01:14.071Z,2.97
2023-04-26T05:04:27.953Z,4.53
2023-04-26T05:07:33.842Z,3.42
2023-04-26T05:10:40.161Z,2.92
2023-04-26T05:13:45.630Z,4.07
2023-04-26T05:16:53.662Z,4.68
2023-04-26T05:19:59.269Z,3.05
2023-04-26T05:23:04.715Z,3.10
2023-04-26T05:26:10.810Z,2.67
2023-04-26T05:29:54.952Z,2.20
2023-04-26T05:33:14.965Z,4.78
2023-04-26T05:36:30.101Z,2.83
2023-04-26T05:39:35.852Z,2.60
2023-04-26T05:42:41.462Z,2.33
2023-04-26T05:45:53.939Z,1.83
2023-04-26T05:49:02.097Z,2.58
2023-04-26T05:52:07.799Z,2.83
2023-04-26T05:55:13.976Z,3.90
2023-04-26T05:58:20.283Z,2.83
2023-04-26T06:01:26.536Z,3.88
2023-04-26T06:04:34.434Z,3.63
2023-04-26T06:07:44.718Z,3.45
2023-04-26T06:10:50.157Z,2.88
2023-04-26T06:13:55.651Z,2.28
2023-04-26T06:17:01.224Z,2.88
2023-04-26T06:20:11.086Z,3.25
2023-04-26T06:23:16.382Z,2.95
2023-04-26T06:26:22.224Z,3.05
2023-04-26T06:29:27.742Z,2.13
2023-04-26T06:32:33.653Z,2.78
2023-04-26T06:35:45.335Z,2.75
2023-04-26T06:38:52.126Z,2.42
2023-04-26T06:41:57.950Z,3.47
2023-04-26T06:45:07.637Z,3.58
2023-04-26T06:48:13.875Z,5.22
2023-04-26T06:51:21.866Z,2.38
2023-04-26T06:54:30.778Z,4.55
2023-04-26T06:57:36.023Z,5.95
2023-04-26T07:00:41.552Z,3.55
2023-04-26T07:03:47.503Z,4.47
2023-04-26T07:06:55.503Z,3.45
2023-04-26T07:10:01.017Z,5.55
2023-04-26T07:13:09.664Z,3.80
2023-04-26T07:16:15.476Z,5.15
2023-04-26T07:19:21.092Z,5.85
2023-04-26T07:22:28.940Z,5.78
2023-04-26T07:25:34.409Z,5.25
2023-04-26T07:28:39.769Z,4.72
2023-04-26T07:31:46.168Z,5.03
2023-04-26T07:34:51.580Z,5.13
2023-04-26T07:37:59.910Z,5.72
2023-04-26T07:41:05.240Z,3.70
2023-04-26T07:44:10.811Z,3.40
2023-04-26T07:47:16.709Z,5.30
2023-04-26T07:50:22.189Z,4.20
2023-04-26T07:53:30.144Z,7.70
2023-04-26T07:56:35.248Z,3.72
2023-04-26T07:59:40.984Z,4.68
2023-04-26T08:02:46.923Z,3.78
2023-04-26T08:05:54.637Z,4.05
2023-04-26T08:09:02.513Z,3.92
2023-04-26T08:12:08.377Z,3.92
2023-04-26T08:15:14.593Z,4.05
2023-04-26T08:18:19.937Z,5.15
2023-04-26T08:21:25.365Z,5.40
2023-04-26T08:24:33.662Z,4.22
2023-04-26T08:27:40.145Z,5.53
2023-04-26T08:30:45.682Z,4.53
2023-04-26T08:33:51.264Z,4.13
2023-04-26T08:36:57.174Z,6.20
2023-04-26T08:40:05.585Z,8.13
2023-04-26T08:43:12.055Z,4.88
2023-04-26T08:46:19.601Z,7.28
2023-04-26T08:49:31.707Z,5.78
2023-04-26T08:52:37.956Z,4.25
2023-04-26T08:55:46.174Z,3.63
2023-04-26T08:58:52.385Z,4.97
2023-04-26T09:01:58.465Z,5.53
2023-04-26T09:05:04.196Z,5.90
2023-04-26T09:08:10.174Z,4.13
2023-04-26T09:11:18.538Z,6.63
2023-04-26T09:14:24.042Z,6.03
2023-04-26T09:17:31.250Z,7.18
2023-04-26T09:20:36.922Z,5.25
2023-04-26T09:23:59.838Z,7.65
2023-04-26T09:27:07.860Z,12.40
2023-04-26T09:30:16.244Z,8.18
2023-04-26T09:33:21.846Z,8.32
2023-04-26T09:36:28.105Z,7.93
2023-04-26T09:39:35.026Z,8.57
2023-04-26T09:42:43.058Z,8.45
2023-04-26T09:45:50.695Z,7.13
2023-04-26T09:49:04.399Z,13.13
2023-04-26T09:52:10.333Z,11.48
2023-04-26T09:55:34.833Z,7.65
2023-04-26T09:58:58.412Z,7.50
2023-04-26T10:02:03.940Z,9.38
2023-04-26T10:05:10.196Z,6.82
2023-04-26T10:08:15.634Z,10.02
2023-04-26T10:11:21.333Z,9.85
2023-04-26T10:14:29.451Z,9.05
2023-04-26T10:17:35.690Z,6.97
2023-04-26T10:20:43.487Z,5.75
2023-04-26T10:23:48.965Z,5.07
2023-04-26T10:26:57.376Z,6.00
2023-04-26T10:30:12.558Z,6.18
2023-04-26T10:33:18.352Z,6.20
2023-04-26T10:36:24.255Z,7.00
2023-04-26T10:39:30.536Z,3.90
2023-04-26T10:42:35.992Z,5.03
2023-04-26T10:45:44.868Z,4.15
2023-04-26T10:48:50.231Z,4.22
2023-04-26T10:52:10.732Z,2.47
2023-04-26T10:55:36.022Z,2.78
2023-04-26T10:58:44.321Z,4.75
2023-04-26T11:04:58.561Z,4.30
2023-04-26T11:08:07.986Z,4.25
2023-04-26T11:11:14.498Z,1.85
2023-04-26T11:14:20.896Z,4.78
2023-04-26T11:17:26.477Z,4.03
2023-04-26T11:20:34.996Z,2.15
2023-04-26T11:23:40.636Z,1.75
2023-04-26T11:26:54.122Z,1.67
2023-04-26T11:29:59.802Z,2.80
2023-04-26T11:33:05.429Z,3.53
2023-04-26T11:36:13.578Z,2.67
2023-04-26T11:39:18.884Z,3.30
2023-04-26T11:42:28.600Z,3.20
2023-04-26T11:45:36.202Z,1.92
2023-04-26T11:48:42.276Z,6.40
2023-04-26T11:51:51.739Z,2.42
2023-04-26T11:55:06.417Z,5.55
2023-04-26T11:58:13.232Z,2.80
2023-04-26T12:01:29.435Z,5.78
2023-04-26T12:04:35.294Z,2.33
2023-04-26T12:07:43.398Z,6.55
2023-04-26T12:10:49.881Z,5.72
2023-04-26T12:13:55.381Z,2.67
2023-04-26T12:17:02.196Z,4.57
2023-04-26T12:20:13.605Z,7.10
2023-04-26T12:23:21.823Z,4.55
2023-04-26T12:26:42.846Z,5.70
2023-04-26T12:29:48.257Z,4.13
2023-04-26T12:33:00.069Z,5.20
2023-04-26T12:36:12.304Z,4.80
2023-04-26T12:39:20.498Z,2.30
2023-04-26T12:42:25.631Z,3.60
2023-04-26T12:45:31.279Z,2.85
2023-04-26T12:48:36.797Z,2.40
2023-04-26T12:51:42.147Z,3.38
2023-04-26T12:54:50.249Z,2.65
2023-04-26T13:01:00.839Z,2.65
2023-04-26T13:04:07.765Z,5.03
2023-04-26T13:07:13.405Z,2.65
2023-04-26T13:10:21.921Z,2.53
2023-04-26T13:13:39.809Z,5.22
2023-04-26T13:16:48.499Z,3.25
2023-04-26T13:19:53.697Z,3.28
2023-04-26T13:22:59.271Z,3.83
2023-04-26T13:26:07.149Z,2.83
2023-04-26T13:29:12.844Z,5.57
2023-04-26T13:32:18.802Z,3.17
2023-04-26T13:35:24.661Z,4.75
2023-04-26T13:38:31.670Z,6.53
2023-04-26T13:41:40.874Z,7.03
2023-04-26T13:44:46.661Z,5.82
2023-04-26T13:47:52.200Z,5.45
2023-04-26T13:50:59.164Z,3.25
2023-04-26T13:54:06.231Z,5.50
2023-04-26T13:57:14.288Z,3.30
2023-04-26T14:00:20.857Z,4.45
2023-04-26T14:03:27.067Z,3.03
2023-04-26T14:06:32.994Z,2.50
2023-04-26T14:09:38.490Z,7.35
2023-04-26T14:12:46.551Z,3.22
2023-04-26T14:15:52.583Z,3.63
2023-04-26T14:18:58.231Z,3.40
2023-04-26T14:22:03.709Z,3.78
2023-04-26T14:25:09.713Z,7.63
2023-04-26T14:28:18.417Z,4.10
2023-04-26T14:31:26.377Z,4.93
2023-04-26T14:34:32.061Z,4.35
2023-04-26T14:37:37.365Z,3.55
2023-04-26T14:40:42.902Z,3.42
2023-04-26T14:43:50.951Z,3.95
2023-04-26T14:46:56.732Z,3.08
2023-04-26T14:50:02.035Z,4.95
2023-04-26T14:53:09.115Z,8.35
2023-04-26T14:56:14.193Z,4.40
2023-04-26T14:59:22.220Z,4.70
2023-04-26T15:02:27.656Z,6.20
2023-04-26T15:05:33.258Z,4.57
2023-04-26T15:08:38.437Z,5.70
2023-04-26T15:11:44.038Z,8.32
2023-04-26T15:14:51.698Z,6.85
2023-04-26T15:17:56.961Z,9.05
2023-04-26T15:21:03.125Z,7.38
2023-04-26T15:24:09.187Z,9.65
2023-04-26T15:27:14.314Z,5.35
2023-04-26T15:30:22.978Z,6.45
2023-04-26T15:33:28.489Z,8.45
2023-04-26T15:36:34.260Z,6.85
2023-04-26T15:39:40.022Z,4.22
2023-04-26T15:42:45.420Z,8.18
2023-04-26T15:45:53.272Z,9.15
2023-04-26T15:48:58.539Z,10.73
2023-04-26T15:52:04.424Z,5.95
2023-04-26T15:55:10.164Z,7.78
2023-04-26T15:58:15.781Z,6.82
2023-04-26T16:01:24.253Z,9.52
2023-04-26T16:04:30.077Z,4.65
2023-04-26T16:07:35.638Z,4.57
2023-04-26T16:10:41.181Z,5.97
2023-04-26T16:13:52.070Z,8.63
2023-04-26T16:17:00.640Z,5.45
2023-04-26T16:20:07.248Z,4.97
2023-04-26T16:23:12.627Z,7.63
2023-04-26T16:26:18.255Z,5.05
2023-04-26T16:29:25.529Z,7.90
2023-04-26T16:32:34.404Z,3.38
2023-04-26T16:35:40.300Z,4.97
2023-04-26T16:38:45.815Z,4.63
2023-04-26T16:41:51.357Z,6.95
2023-04-26T16:44:57.871Z,7.05
2023-04-26T16:48:05.885Z,6.80
2023-04-26T16:51:11.410Z,4.32
2023-04-26T16:54:17.032Z,8.82
2023-04-26T16:57:22.487Z,6.93
2023-04-26T17:00:28.730Z,4.63
2023-04-26T17:03:37.106Z,10.90
2023-04-26T17:09:47.988Z,6.72
2023-04-26T17:12:53.538Z,7.10
2023-04-26T17:15:58.757Z,7.35
2023-04-26T17:19:07.162Z,7.88
2023-04-26T17:25:17.916Z,8.43
2023-04-26T17:28:23.357Z,9.20
2023-04-26T17:31:29.288Z,11.82
2023-04-26T17:34:39.030Z,5.22
2023-04-26T17:37:46.828Z,7.95
2023-04-26T17:40:55.634Z,5.57
2023-04-26T17:44:01.142Z,10.70
2023-04-26T17:47:06.674Z,12.27
2023-04-26T17:50:16.008Z,8.63
2023-04-26T17:53:21.976Z,8.23
2023-04-26T17:56:28.044Z,8.35
2023-04-26T17:59:33.984Z,9.60
2023-04-26T18:02:40.114Z,9.23
2023-04-26T18:05:48.392Z,13.75
2023-04-26T18:08:53.982Z,9.55
2023-04-26T18:11:59.244Z,6.80
2023-04-26T18:15:04.585Z,5.13
2023-04-26T18:18:11.162Z,7.78
2023-04-26T18:21:19.294Z,6.35
2023-04-26T18:24:24.832Z,5.13
2023-04-26T18:27:30.517Z,7.78
2023-04-26T18:30:36.012Z,6.30
2023-04-26T18:33:41.393Z,7.72
2023-04-26T18:36:49.344Z,8.45
2023-04-26T18:39:54.910Z,11.55
2023-04-26T18:43:00.255Z,17.98
2023-04-26T18:46:07.448Z,10.23
2023-04-26T18:49:13.598Z,11.13
2023-04-26T18:52:21.951Z,12.80
2023-04-26T18:55:27.230Z,12.27
2023-04-26T18:58:32.498Z,11.93
2023-04-26T19:01:38.122Z,11.90
2023-04-26T19:04:43.403Z,12.20
2023-04-26T19:07:54.834Z,11.50
2023-04-26T19:11:00.140Z,10.75
2023-04-26T19:14:05.471Z,12.35
2023-04-26T19:17:10.792Z,7.20
2023-04-26T19:20:16.890Z,10.85
2023-04-26T19:23:24.821Z,7.15
2023-04-26T19:26:30.129Z,18.10
2023-04-26T19:29:35.453Z,12.23
2023-04-26T19:32:40.741Z,10.48
2023-04-26T19:35:46.015Z,11.23
2023-04-26T19:38:54.187Z,10.02
2023-04-26T19:42:01.624Z,10.85
2023-04-26T19:45:07.548Z,8.45
2023-04-26T19:48:13.109Z,8.95
2023-04-26T19:51:19.529Z,9.13
2023-04-26T19:54:27.673Z,13.85
2023-04-26T19:57:33.478Z,11.23
2023-04-26T20:00:39.218Z,7.72
2023-04-26T20:03:45.157Z,14.32
2023-04-26T20:06:50.789Z,17.00
2023-04-26T20:09:59.082Z,11.73
2023-04-26T20:13:04.426Z,12.90
2023-04-26T20:16:09.895Z,13.35
2023-04-26T20:19:15.715Z,12.68
2023-04-26T20:22:21.585Z,6.97
2023-04-26T20:25:29.606Z,14.48
2023-04-26T20:28:34.762Z,9.88
2023-04-26T20:31:40.391Z,9.85
2023-04-26T20:34:45.825Z,11.18
2023-04-26T20:37:51.613Z,14.65
2023-04-26T20:41:00.128Z,7.78
2023-04-26T20:44:05.554Z,10.77
2023-04-26T20:47:10.989Z,12.85
2023-04-26T20:50:16.532Z,15.13
2023-04-26T20:53:22.097Z,20.40
2023-04-26T20:56:29.942Z,10.35
2023-04-26T20:59:35.516Z,11.13
2023-04-26T21:02:40.782Z,15.80
2023-04-26T21:05:46.440Z,13.10
2023-04-26T21:08:51.884Z,9.77
2023-04-26T21:12:00.150Z,10.05
2023-04-26T21:15:05.422Z,14.73
2023-04-26T21:18:11.898Z,13.30
2023-04-26T21:21:17.041Z,13.50
2023-04-26T21:24:22.328Z,17.75
2023-04-26T21:27:30.795Z,20.05
2023-04-26T21:30:37.145Z,20.92
2023-04-26T21:33:42.296Z,16.40
2023-04-26T21:36:48.075Z,11.93
2023-04-26T21:39:53.814Z,12.68
2023-04-26T21:43:04.902Z,11.88
2023-04-26T21:46:12.092Z,11.30
2023-04-26T21:49:17.862Z,11.52
2023-04-26T21:52:23.576Z,12.23
2023-04-26T21:55:29.121Z,10.95
2023-04-26T21:58:36.964Z,11.95
2023-04-26T22:01:42.246Z,15.93
2023-04-26T22:04:47.403Z,13.68
2023-04-26T22:07:52.981Z,15.40
2023-04-26T22:10:58.180Z,13.90
2023-04-26T22:14:06.017Z,13.88
2023-04-26T22:17:11.703Z,17.13
2023-04-26T22:20:17.130Z,12.63
2023-04-26T22:23:22.460Z,12.18
2023-04-26T22:26:28.086Z,15.18
2023-04-26T22:29:35.857Z,11.80
2023-04-26T22:32:41.259Z,16.75
2023-04-26T22:35:47.285Z,12.40
2023-04-26T22:38:52.937Z,14.95
2023-04-26T22:41:58.047Z,12.32
2023-04-26T22:45:06.175Z,11.93
2023-04-26T22:48:11.882Z,16.02
2023-04-26T22:51:17.265Z,13.50
2023-04-26T22:54:22.604Z,17.48
2023-04-26T22:57:28.369Z,12.50
2023-04-26T23:00:36.213Z,12.55
2023-04-26T23:03:41.916Z,10.95
2023-04-26T23:06:47.646Z,11.35
2023-04-26T23:09:53.010Z,15.30
2023-04-26T23:12:58.751Z,11.55
2023-04-26T23:16:07.692Z,10.93
2023-04-26T23:19:13.506Z,10.93
2023-04-26T23:22:19.092Z,12.35
2023-04-26T23:25:24.545Z,11.57
2023-04-26T23:28:29.852Z,8.23
2023-04-26T23:31:38.007Z,7.47
2023-04-26T23:34:43.581Z,11.85
2023-04-26T23:37:49.218Z,9.82
2023-04-26T23:40:54.522Z,9.77
2023-04-26T23:44:00.220Z,9.65
2023-04-26T23:47:08.309Z,11.63
2023-04-26T23:50:14.257Z,12.07
2023-04-26T23:53:19.720Z,12.05
2023-04-26T23:56:25.172Z,13.00
2023-04-26T23:59:30.451Z,15.68
